Time;durP1;ratioP1;P1;durP2;ratioP2;P2;SDS_P1;SDS_P2;PMS_P1;PMS_P2;Temp;Humidity;BMP_temperature;BMP_pressure;BME280_temperature;BME280_humidity;BME280_pressure;Samples;Min_cycle;Max_cycle;Signal;HPM_P1;HPM_P2
2021/04/18 00:01:14;;;;;;;3.50;3.20;;;15.90;49.10;;;;;;4953176;28;20462;-54
2021/04/18 00:03:41;;;;;;;7.53;3.60;;;15.90;49.20;;;;;;4953276;28;20439;-52
2021/04/18 00:06:09;;;;;;;5.27;3.43;;;15.80;49.10;;;;;;4953034;28;20466;-53
2021/04/18 00:08:36;;;;;;;8.47;3.73;;;15.80;49.30;;;;;;4953543;28;20440;-53
2021/04/18 00:11:03;;;;;;;4.80;3.43;;;15.80;49.40;;;;;;4953100;28;20483;-48
2021/04/18 00:13:30;;;;;;;10.77;3.90;;;15.80;49.40;;;;;;4952786;28;20474;-52
2021/04/18 00:15:57;;;;;;;6.00;3.50;;;15.80;49.40;;;;;;4956465;28;20446;-53
2021/04/18 00:18:24;;;;;;;8.93;3.90;;;15.70;49.40;;;;;;4956436;28;20447;-51
2021/04/18 00:20:51;;;;;;;7.50;3.17;;;15.70;49.40;;;;;;4956649;28;20439;-51
2021/04/18 00:23:18;;;;;;;7.10;3.60;;;15.70;49.50;;;;;;4951426;28;20555;-52
2021/04/18 00:25:45;;;;;;;4.67;3.80;;;15.70;49.50;;;;;;4955348;28;20471;-52
2021/04/18 00:28:12;;;;;;;13.07;3.70;;;15.60;49.50;;;;;;4956530;28;20461;-52
2021/04/18 00:30:39;;;;;;;4.13;3.30;;;15.60;49.60;;;;;;4956286;28;20439;-54
2021/04/18 00:33:06;;;;;;;4.43;3.47;;;15.60;49.50;;;;;;4955953;28;20501;-53
2021/04/18 00:35:33;;;;;;;6.17;3.80;;;15.60;49.50;;;;;;4955691;28;20506;-51
2021/04/18 00:38:01;;;;;;;5.50;3.57;;;15.60;49.60;;;;;;4955805;28;20566;-52
2021/04/18 00:40:28;;;;;;;11.43;3.60;;;15.50;49.60;;;;;;4956198;28;20510;-51
2021/04/18 00:42:55;;;;;;;7.90;3.50;;;15.50;49.70;;;;;;4955947;28;20475;-55
2021/04/18 00:45:22;;;;;;;5.67;3.60;;;15.40;49.70;;;;;;4955582;28;20447;-54
2021/04/18 00:47:50;;;;;;;7.57;3.63;;;15.40;49.80;;;;;;4956324;28;20451;-53
2021/04/18 00:50:20;;;;;;;5.53;3.57;;;15.40;49.80;;;;;;4956079;28;20455;-51
2021/04/18 00:52:49;;;;;;;6.93;3.70;;;15.40;49.80;;;;;;4955870;28;20569;-51
2021/04/18 00:55:16;;;;;;;4.63;3.17;;;15.40;49.80;;;;;;4955854;28;20537;-54
2021/04/18 00:57:43;;;;;;;8.00;3.87;;;15.40;49.90;;;;;;4955666;28;20518;-51
2021/04/18 01:00:11;;;;;;;3.63;3.30;;;15.30;49.80;;;;;;4955648;28;20497;-50
2021/04/18 01:02:38;;;;;;;9.03;3.13;;;15.30;49.90;;;;;;4955821;28;20517;-54
2021/04/18 01:05:06;;;;;;;6.60;3.90;;;15.20;50.00;;;;;;4955478;28;20554;-53
2021/04/18 01:07:33;;;;;;;6.70;3.43;;;15.30;50.10;;;;;;4955491;28;20443;-51
2021/04/18 01:10:00;;;;;;;6.93;3.50;;;15.30;50.10;;;;;;4955459;28;20451;-50
2021/04/18 01:12:27;;;;;;;11.60;3.53;;;15.20;50.00;;;;;;4955697;28;20486;-54
2021/04/18 01:14:54;;;;;;;9.40;3.90;;;15.20;50.20;;;;;;4954970;28;20535;-52
2021/04/18 01:17:21;;;;;;;5.20;3.60;;;15.20;50.20;;;;;;4954730;28;20540;-49
2021/04/18 01:19:48;;;;;;;3.90;3.10;;;15.10;50.10;;;;;;4955585;28;20443;-54
2021/04/18 01:22:16;;;;;;;7.33;3.60;;;15.10;50.20;;;;;;4955182;28;20519;-50
2021/04/18 01:24:43;;;;;;;3.60;3.30;;;15.10;50.10;;;;;;4954590;28;20529;-53
2021/04/18 01:27:11;;;;;;;3.73;3.10;;;15.10;50.30;;;;;;4955316;28;20443;-50
2021/04/18 01:29:38;;;;;;;5.63;3.33;;;15.00;50.20;;;;;;4955145;28;20479;-54
2021/04/18 01:32:05;;;;;;;5.47;3.40;;;15.10;50.40;;;;;;4955203;28;20538;-54
2021/04/18 01:34:32;;;;;;;6.53;3.70;;;15.00;50.30;;;;;;4954867;28;20443;-51
2021/04/18 01:36:59;;;;;;;7.43;3.50;;;15.00;50.30;;;;;;4955425;28;20583;-52
2021/04/18 01:39:27;;;;;;;4.40;3.37;;;15.00;50.40;;;;;;4950673;28;20498;-51
2021/04/18 01:41:54;;;;;;;3.97;3.10;;;15.00;50.50;;;;;;4955639;28;20489;-53
2021/04/18 01:44:20;;;;;;;4.80;3.47;;;15.00;50.50;;;;;;4954891;28;20487;-52
2021/04/18 01:46:47;;;;;;;4.10;3.23;;;14.90;50.50;;;;;;4955412;28;20508;-54
2021/04/18 01:49:14;;;;;;;4.60;3.50;;;14.90;50.50;;;;;;4955304;28;20458;-53
2021/04/18 01:51:41;;;;;;;9.03;3.70;;;14.90;50.50;;;;;;4954882;28;20514;-54
2021/04/18 01:54:08;;;;;;;5.27;3.10;;;14.90;50.60;;;;;;4954879;28;20513;-51
2021/04/18 01:56:35;;;;;;;3.27;3.00;;;14.90;50.60;;;;;;4954795;28;20493;-52
2021/04/18 01:59:02;;;;;;;7.33;3.40;;;14.90;50.70;;;;;;4954910;28;20470;-54
2021/04/18 02:01:29;;;;;;;3.43;3.10;;;14.90;50.70;;;;;;4955103;28;20527;-54
2021/04/18 02:03:56;;;;;;;4.53;3.20;;;14.80;50.70;;;;;;4954936;28;20485;-54
2021/04/18 02:06:24;;;;;;;6.37;3.67;;;14.80;50.80;;;;;;4955109;28;20443;-51
2021/04/18 02:08:51;;;;;;;7.10;3.70;;;14.80;50.80;;;;;;4954800;28;20471;-53
2021/04/18 02:11:17;;;;;;;4.40;3.27;;;14.80;50.80;;;;;;4954589;28;20479;-53
2021/04/18 02:13:45;;;;;;;3.60;3.20;;;14.80;50.80;;;;;;4954578;28;20482;-53
2021/04/18 02:16:12;;;;;;;3.67;3.37;;;14.80;50.80;;;;;;4954548;28;20458;-54
2021/04/18 02:18:39;;;;;;;5.30;3.37;;;14.80;50.90;;;;;;4955132;28;20446;-54
2021/04/18 02:21:06;;;;;;;5.83;3.50;;;14.70;50.90;;;;;;4955038;28;20443;-51
2021/04/18 02:23:33;;;;;;;5.50;3.60;;;14.70;50.90;;;;;;4954953;28;20558;-49
2021/04/18 02:26:00;;;;;;;4.20;3.10;;;14.70;50.90;;;;;;4955064;28;20461;-52
2021/04/18 02:28:27;;;;;;;4.20;3.20;;;14.70;51.00;;;;;;4954966;28;20432;-54
2021/04/18 02:30:55;;;;;;;3.60;3.30;;;14.70;51.10;;;;;;4955217;28;20454;-51
2021/04/18 02:33:21;;;;;;;6.53;3.40;;;14.70;51.20;;;;;;4955080;28;20499;-51
2021/04/18 02:35:48;;;;;;;6.17;3.50;;;14.60;51.70;;;;;;4955215;28;20451;-54
2021/04/18 02:38:15;;;;;;;3.37;3.07;;;14.60;51.20;;;;;;4953769;28;20515;-54
2021/04/18 02:40:42;;;;;;;4.40;3.13;;;14.60;51.20;;;;;;4955097;28;20504;-54
2021/04/18 02:43:09;;;;;;;5.80;3.30;;;14.60;51.30;;;;;;4954987;28;20475;-50
2021/04/18 02:45:36;;;;;;;5.60;3.03;;;14.60;51.20;;;;;;4954836;28;20443;-50
2021/04/18 02:48:04;;;;;;;3.97;3.40;;;14.60;51.20;;;;;;4954992;28;20475;-51
2021/04/18 02:50:31;;;;;;;3.63;3.30;;;14.60;51.30;;;;;;4955011;28;20458;-52
2021/04/18 02:52:58;;;;;;;7.13;3.50;;;14.60;51.40;;;;;;4950088;28;20507;-51
2021/04/18 02:55:25;;;;;;;3.83;3.33;;;14.50;51.40;;;;;;4954566;28;20467;-51
2021/04/18 02:57:52;;;;;;;4.20;3.17;;;14.50;51.40;;;;;;4954594;28;20498;-53
2021/04/18 03:00:20;;;;;;;6.20;3.80;;;14.50;51.50;;;;;;4954639;28;20443;-52
2021/04/18 03:02:46;;;;;;;5.90;3.20;;;14.50;51.50;;;;;;4954821;28;20477;-54
2021/04/18 03:05:15;;;;;;;5.13;3.23;;;14.50;51.50;;;;;;4954550;28;20435;-50
2021/04/18 03:07:42;;;;;;;3.07;2.80;;;14.50;51.60;;;;;;4954154;28;20536;-51
2021/04/18 03:10:10;;;;;;;4.20;3.00;;;14.50;51.60;;;;;;4954213;28;20493;-51
2021/04/18 03:12:37;;;;;;;3.73;3.40;;;14.50;51.70;;;;;;4954408;28;20435;-53
2021/04/18 03:15:05;;;;;;;3.87;3.53;;;14.50;51.60;;;;;;4954347;28;20546;-53
2021/04/18 03:17:32;;;;;;;3.80;3.40;;;14.40;51.50;;;;;;4954252;28;20506;-54
2021/04/18 03:19:59;;;;;;;4.23;3.17;;;14.40;51.60;;;;;;4954196;28;20451;-48
2021/04/18 03:22:27;;;;;;;4.07;3.33;;;14.40;51.60;;;;;;4953866;28;20475;-51
2021/04/18 03:24:53;;;;;;;3.20;3.00;;;14.40;51.70;;;;;;4954098;28;20518;-52
2021/04/18 03:27:20;;;;;;;6.40;3.47;;;14.40;51.70;;;;;;4954213;28;20447;-52
2021/04/18 03:29:47;;;;;;;4.17;3.33;;;14.40;51.70;;;;;;4954331;28;20470;-51
2021/04/18 03:32:14;;;;;;;3.43;3.10;;;14.40;51.80;;;;;;4954689;28;20435;-54
2021/04/18 03:34:41;;;;;;;3.87;3.47;;;14.30;51.70;;;;;;4954163;28;20447;-53
2021/04/18 03:37:08;;;;;;;4.47;3.17;;;14.30;51.80;;;;;;4953789;28;20548;-50
2021/04/18 03:39:36;;;;;;;5.53;3.17;;;14.30;51.80;;;;;;4954103;28;20534;-49
2021/04/18 03:42:03;;;;;;;4.00;3.60;;;14.30;51.80;;;;;;4963651;28;20481;-51
2021/04/18 03:44:29;;;;;;;3.77;3.47;;;14.30;51.80;;;;;;4972787;28;20439;-54
2021/04/18 03:46:57;;;;;;;4.93;3.00;;;14.30;51.90;;;;;;4973175;28;20438;-49
2021/04/18 03:49:24;;;;;;;4.73;3.13;;;14.30;51.90;;;;;;4972775;28;20486;-51
2021/04/18 03:51:50;;;;;;;3.50;3.20;;;14.30;51.90;;;;;;4973101;28;20480;-49
2021/04/18 03:54:19;;;;;;;3.50;3.17;;;14.30;51.90;;;;;;4973156;28;20481;-54
2021/04/18 03:56:46;;;;;;;6.63;3.80;;;14.30;52.00;;;;;;4972968;28;20520;-52
2021/04/18 03:59:13;;;;;;;4.40;3.47;;;14.20;52.00;;;;;;4973221;28;20525;-53
2021/04/18 04:01:40;;;;;;;3.67;3.37;;;14.30;52.10;;;;;;4972580;28;20581;-50
2021/04/18 04:04:07;;;;;;;3.63;3.33;;;14.30;52.10;;;;;;4972493;28;20445;-54
2021/04/18 04:06:34;;;;;;;4.97;3.60;;;14.30;52.10;;;;;;4972672;28;20455;-51
2021/04/18 04:09:02;;;;;;;5.57;3.40;;;14.20;52.00;;;;;;4973226;28;20434;-48
2021/04/18 04:11:28;;;;;;;4.83;3.20;;;14.20;52.00;;;;;;4973179;28;20493;-53
2021/04/18 04:13:56;;;;;;;3.13;2.90;;;14.30;52.00;;;;;;4973106;28;20450;-54
2021/04/18 04:16:23;;;;;;;4.77;3.60;;;14.30;52.10;;;;;;4972503;28;20485;-53
2021/04/18 04:18:50;;;;;;;3.80;3.20;;;14.20;52.10;;;;;;4972754;28;20482;-50
2021/04/18 04:21:17;;;;;;;9.27;3.33;;;14.20;52.10;;;;;;4972990;28;20443;-51
2021/04/18 04:23:44;;;;;;;3.63;3.33;;;14.20;52.10;;;;;;4972761;28;20541;-50
2021/04/18 04:26:11;;;;;;;3.23;2.90;;;14.20;52.10;;;;;;4972785;28;20451;-53
2021/04/18 04:28:37;;;;;;;3.20;3.00;;;14.20;52.20;;;;;;4973128;28;20430;-50
2021/04/18 04:31:05;;;;;;;3.77;3.20;;;14.20;52.10;;;;;;4972977;28;20438;-52
2021/04/18 04:33:33;;;;;;;3.00;2.80;;;14.20;52.20;;;;;;4972966;28;20446;-50
2021/04/18 04:36:01;;;;;;;3.17;2.83;;;14.20;52.20;;;;;;4972371;28;20485;-53
2021/04/18 04:38:29;;;;;;;4.20;3.40;;;14.20;52.20;;;;;;4972436;28;20481;-48
2021/04/18 04:40:56;;;;;;;4.13;3.03;;;14.20;52.20;;;;;;4972587;28;20495;-53
2021/04/18 04:43:23;;;;;;;6.60;3.80;;;14.20;52.20;;;;;;4972793;28;20481;-50
2021/04/18 04:45:50;;;;;;;4.73;3.27;;;14.20;52.20;;;;;;4972779;28;20477;-50
2021/04/18 04:48:17;;;;;;;4.20;3.00;;;14.20;52.20;;;;;;4972404;28;20533;-52
2021/04/18 04:50:44;;;;;;;4.97;3.40;;;14.20;52.30;;;;;;4972520;28;20446;-54
2021/04/18 04:53:11;;;;;;;3.77;3.20;;;14.20;52.30;;;;;;4972581;28;20439;-53
2021/04/18 04:55:38;;;;;;;3.10;2.80;;;14.20;52.40;;;;;;4972055;28;20441;-53
2021/04/18 04:58:05;;;;;;;2.77;2.60;;;14.10;52.30;;;;;;4972403;28;20474;-53
2021/04/18 05:00:31;;;;;;;5.17;3.10;;;14.20;52.40;;;;;;4973590;28;20438;-49
2021/04/18 05:02:58;;;;;;;3.40;2.87;;;14.20;52.40;;;;;;4975743;28;20450;-49
2021/04/18 05:05:27;;;;;;;4.77;3.40;;;14.20;52.40;;;;;;4975226;28;20487;-53
2021/04/18 05:07:53;;;;;;;2.93;2.57;;;14.20;52.40;;;;;;4974877;28;20470;-51
2021/04/18 05:10:20;;;;;;;3.13;2.90;;;14.20;52.40;;;;;;4975699;28;20458;-51
2021/04/18 05:12:47;;;;;;;3.17;2.90;;;14.20;52.40;;;;;;4975356;28;20468;-53
2021/04/18 05:15:14;;;;;;;2.93;2.73;;;14.20;52.40;;;;;;4975364;28;20480;-52
2021/04/18 05:17:41;;;;;;;3.47;3.07;;;14.20;52.40;;;;;;4975129;28;20482;-51
2021/04/18 05:20:09;;;;;;;4.00;3.17;;;14.20;52.40;;;;;;4975476;28;20450;-49
2021/04/18 05:22:37;;;;;;;3.13;2.83;;;14.20;52.40;;;;;;4975261;28;20529;-54
2021/04/18 05:25:04;;;;;;;3.43;3.13;;;14.20;52.30;;;;;;4974861;28;20447;-53
2021/04/18 05:27:31;;;;;;;3.40;3.03;;;14.20;52.30;;;;;;4981668;28;20536;-54
2021/04/18 05:29:58;;;;;;;2.90;2.70;;;14.20;52.20;;;;;;4975255;28;20427;-54
2021/04/18 05:32:25;;;;;;;3.30;3.00;;;14.30;52.30;;;;;;4974300;28;20470;-53
2021/04/18 05:34:52;;;;;;;3.40;2.90;;;14.30;52.30;;;;;;4955234;28;20443;-53
2021/04/18 05:37:54;;;;;;;3.03;2.83;;;14.30;52.30;;;;;;4955654;28;20556;-52
2021/04/18 05:40:20;;;;;;;2.90;2.70;;;14.20;52.30;;;;;;4955996;28;20524;-52
2021/04/18 05:42:47;;;;;;;3.37;3.07;;;14.20;52.30;;;;;;4955637;28;20473;-51
2021/04/18 05:45:14;;;;;;;3.60;3.30;;;14.30;52.40;;;;;;4955845;28;20497;-53
2021/04/18 05:47:45;;;;;;;2.93;2.73;;;14.30;52.30;;;;;;4956005;28;20436;-54
2021/04/18 05:50:13;;;;;;;2.97;2.77;;;14.30;52.30;;;;;;4955633;28;20447;-53
2021/04/18 05:52:40;;;;;;;2.67;2.43;;;14.30;52.30;;;;;;4955655;28;20435;-52
2021/04/18 05:55:12;;;;;;;3.20;2.90;;;14.30;52.30;;;;;;4955692;28;20451;-53
2021/04/18 05:57:39;;;;;;;2.97;2.77;;;14.30;52.30;;;;;;4955726;28;20502;-54
2021/04/18 06:00:07;;;;;;;3.57;2.80;;;14.30;52.20;;;;;;4955725;28;20479;-53
2021/04/18 06:02:33;;;;;;;3.30;2.97;;;14.30;52.20;;;;;;4955995;28;20440;-51
2021/04/18 06:05:01;;;;;;;3.23;2.93;;;14.30;52.20;;;;;;4955123;28;20457;-52
2021/04/18 06:07:30;;;;;;;3.20;2.90;;;14.30;52.10;;;;;;4955401;28;20439;-54
2021/04/18 06:09:58;;;;;;;3.80;2.80;;;14.30;52.10;;;;;;4955340;28;20439;-54
2021/04/18 06:12:26;;;;;;;3.50;3.20;;;14.40;52.20;;;;;;4955496;28;20486;-50
2021/04/18 06:14:53;;;;;;;2.87;2.67;;;14.40;52.00;;;;;;4954893;28;20439;-51
2021/04/18 06:17:20;;;;;;;3.13;2.80;;;14.40;52.00;;;;;;4955133;28;20502;-53
2021/04/18 06:19:47;;;;;;;2.97;2.77;;;14.40;52.00;;;;;;4954990;28;20443;-51
2021/04/18 06:22:14;;;;;;;3.00;2.70;;;14.40;51.90;;;;;;4955448;28;20471;-52
2021/04/18 06:24:40;;;;;;;3.50;2.90;;;14.50;51.90;;;;;;4955505;28;20490;-53
2021/04/18 06:27:07;;;;;;;2.80;2.60;;;14.50;51.80;;;;;;4955184;28;20500;-48
2021/04/18 06:29:35;;;;;;;2.60;2.50;;;14.50;51.80;;;;;;4955418;28;20535;-53
2021/04/18 06:32:02;;;;;;;3.10;2.90;;;14.60;51.70;;;;;;4954763;28;20505;-53
2021/04/18 06:34:29;;;;;;;3.50;3.00;;;14.60;51.60;;;;;;4954295;28;20447;-50
2021/04/18 06:36:56;;;;;;;6.40;2.80;;;14.70;51.60;;;;;;4954497;28;20443;-50
2021/04/18 06:39:25;;;;;;;3.30;3.00;;;14.70;51.40;;;;;;4954732;28;20527;-52
2021/04/18 06:41:53;;;;;;;2.60;2.40;;;14.70;51.40;;;;;;4954635;28;20519;-50
2021/04/18 06:44:20;;;;;;;2.93;2.73;;;14.70;51.40;;;;;;4954144;28;20447;-50
2021/04/18 06:46:52;;;;;;;3.10;2.80;;;14.70;51.30;;;;;;4954469;28;20462;-51
2021/04/18 06:49:19;;;;;;;2.97;2.70;;;14.80;51.20;;;;;;4954477;28;20451;-49
2021/04/18 06:51:46;;;;;;;4.07;2.90;;;14.80;51.20;;;;;;4954248;28;20542;-50
2021/04/18 06:54:13;;;;;;;4.70;3.40;;;14.90;51.10;;;;;;4954168;28;20546;-51
2021/04/18 06:56:40;;;;;;;3.20;2.90;;;14.90;51.00;;;;;;4954260;28;20538;-53
2021/04/18 06:59:07;;;;;;;4.27;3.00;;;15.00;51.00;;;;;;4954117;28;20587;-48
2021/04/18 07:01:35;;;;;;;3.20;2.90;;;15.00;51.00;;;;;;4954171;28;20448;-50
2021/04/18 07:04:11;;;;;;;2.70;2.50;;;15.00;51.00;;;;;;4954054;28;20447;-49
2021/04/18 07:06:39;;;;;;;3.10;2.77;;;15.10;50.90;;;;;;4954081;28;20458;-51
2021/04/18 07:09:07;;;;;;;2.90;2.70;;;15.20;50.80;;;;;;4953701;28;20475;-54
2021/04/18 07:11:44;;;;;;;3.00;2.50;;;15.30;50.60;;;;;;4954244;28;20544;-54
2021/04/18 07:14:21;;;;;;;3.87;3.10;;;15.50;50.50;;;;;;4977761;28;20534;-53
2021/04/18 07:16:48;;;;;;;2.93;2.63;;;15.70;50.00;;;;;;4962584;28;20474;-53
2021/04/18 07:19:23;;;;;;;2.70;2.50;;;15.90;49.70;;;;;;4973432;28;20480;-51
2021/04/18 07:21:51;;;;;;;3.10;2.90;;;16.10;49.40;;;;;;4973527;28;20434;-54
2021/04/18 07:24:18;;;;;;;3.83;2.63;;;16.30;49.20;;;;;;4973034;28;20430;-53
2021/04/18 07:26:55;;;;;;;3.10;2.90;;;16.30;49.00;;;;;;4973528;28;20525;-50
2021/04/18 07:29:22;;;;;;;2.73;2.53;;;16.40;49.10;;;;;;4973613;28;20491;-54
2021/04/18 07:31:49;;;;;;;2.73;2.50;;;16.50;48.90;;;;;;4973253;28;20468;-50
2021/04/18 07:34:17;;;;;;;2.70;2.43;;;16.60;48.90;;;;;;4973075;28;20522;-53
2021/04/18 07:36:45;;;;;;;2.83;2.63;;;16.70;48.80;;;;;;4973247;28;20442;-52
2021/04/18 07:39:13;;;;;;;2.73;2.50;;;16.80;48.90;;;;;;4972819;28;20573;-50
2021/04/18 07:41:41;;;;;;;2.80;2.60;;;16.90;49.30;;;;;;4973260;28;20460;-53
2021/04/18 07:44:15;;;;;;;3.00;2.80;;;17.00;48.60;;;;;;4972734;28;20439;-49
2021/04/18 07:46:46;;;;;;;3.73;2.70;;;17.20;48.40;;;;;;4972772;28;20427;-52
2021/04/18 07:49:13;;;;;;;2.77;2.57;;;17.40;48.20;;;;;;4973137;28;20488;-51
2021/04/18 07:51:42;;;;;;;2.40;2.20;;;17.50;48.10;;;;;;4973294;28;20446;-48
2021/04/18 07:54:11;;;;;;;2.80;2.40;;;17.60;48.10;;;;;;4972774;28;20541;-53
2021/04/18 07:56:37;;;;;;;2.33;2.13;;;17.80;47.90;;;;;;4973316;28;20443;-50
2021/04/18 07:59:04;;;;;;;2.77;2.57;;;18.00;47.70;;;;;;4972675;28;20493;-52
2021/04/18 08:01:31;;;;;;;3.60;2.53;;;18.10;47.60;;;;;;4972653;28;20489;-51
2021/04/18 08:03:58;;;;;;;2.73;2.53;;;18.20;47.40;;;;;;4972585;28;20465;-52
2021/04/18 08:06:26;;;;;;;2.80;2.57;;;18.30;47.40;;;;;;4972216;28;20533;-53
2021/04/18 08:08:54;;;;;;;3.27;2.40;;;18.40;47.30;;;;;;4972858;28;20528;-52
2021/04/18 08:11:22;;;;;;;2.70;2.50;;;18.60;47.40;;;;;;4972620;28;20478;-53
2021/04/18 08:13:50;;;;;;;4.17;2.60;;;18.70;47.40;;;;;;4972302;28;20416;-51
2021/04/18 08:16:26;;;;;;;3.27;2.53;;;18.80;47.40;;;;;;4972379;28;20446;-50
2021/04/18 08:18:53;;;;;;;2.77;2.57;;;18.90;47.30;;;;;;4972352;28;20474;-49
2021/04/18 08:21:24;;;;;;;2.37;2.27;;;19.10;47.90;;;;;;4972289;28;20478;-53
2021/04/18 08:23:51;;;;;;;2.67;2.50;;;19.20;47.10;;;;;;4972619;28;20442;-51
2021/04/18 08:26:18;;;;;;;4.33;3.20;;;19.30;47.10;;;;;;4972214;28;20481;-51
2021/04/18 08:29:06;;;;;;;2.50;2.37;;;19.40;47.00;;;;;;4972732;28;20464;-52
2021/04/18 08:31:33;;;;;;;3.97;2.37;;;19.60;46.80;;;;;;4972330;28;20545;-49
2021/04/18 08:34:01;;;;;;;2.77;2.60;;;19.80;46.70;;;;;;4972253;28;20469;-52
2021/04/18 08:36:33;;;;;;;2.40;2.30;;;19.90;46.70;;;;;;4974909;28;20445;-51
2021/04/18 08:39:18;;;;;;;3.00;2.70;;;20.10;46.60;;;;;;4975741;28;20458;-48
2021/04/18 08:41:46;;;;;;;2.60;2.40;;;20.30;46.40;;;;;;4956905;28;20514;-51
2021/04/18 08:44:15;;;;;;;2.83;2.40;;;20.40;46.30;;;;;;4956532;28;20413;-54
2021/04/18 08:46:41;;;;;;;4.10;2.27;;;20.60;46.30;;;;;;4956645;28;20530;-52
2021/04/18 08:49:09;;;;;;;2.63;2.43;;;20.70;46.30;;;;;;4956475;28;20437;-48
2021/04/18 08:51:37;;;;;;;2.57;2.37;;;20.80;46.20;;;;;;4956689;28;20422;-51
2021/04/18 08:54:04;;;;;;;2.20;2.10;;;20.90;46.20;;;;;;4956643;28;20439;-51
2021/04/18 08:56:45;;;;;;;2.40;2.30;;;21.10;46.20;;;;;;4956471;28;20496;-49
2021/04/18 08:59:12;;;;;;;3.03;2.50;;;21.20;46.10;;;;;;4956644;28;20481;-52
2021/04/18 09:01:47;;;;;;;2.57;2.37;;;21.40;45.90;;;;;;4956316;28;20445;-50
2021/04/18 09:04:14;;;;;;;2.87;2.67;;;21.50;45.90;;;;;;4956045;28;20628;-50
2021/04/18 09:06:43;;;;;;;3.37;2.37;;;21.50;46.00;;;;;;4956148;28;20466;-50
2021/04/18 09:09:12;;;;;;;2.43;2.27;;;21.50;46.20;;;;;;4956423;28;20418;-54
2021/04/18 09:11:41;;;;;;;5.00;2.60;;;21.50;46.40;;;;;;4956444;28;20419;-48
2021/04/18 09:14:08;;;;;;;2.53;2.33;;;21.70;46.20;;;;;;4956116;28;20442;-52
2021/04/18 09:16:36;;;;;;;2.70;2.50;;;21.90;46.00;;;;;;4956025;28;20451;-51
2021/04/18 09:19:24;;;;;;;2.70;2.50;;;22.10;45.90;;;;;;4955736;28;20478;-55
2021/04/18 09:21:55;;;;;;;2.93;2.73;;;22.30;45.80;;;;;;4956417;28;20402;-54
2021/04/18 09:24:22;;;;;;;3.37;2.50;;;22.50;45.70;;;;;;4956096;28;20454;-52
2021/04/18 09:26:56;;;;;;;4.73;2.67;;;22.60;45.70;;;;;;4955799;28;20479;-49
2021/04/18 09:29:24;;;;;;;3.87;2.83;;;22.90;45.50;;;;;;4955734;28;20445;-55
2021/04/18 09:31:58;;;;;;;7.03;2.70;;;23.00;45.40;;;;;;4955987;28;20421;-54
2021/04/18 09:34:26;;;;;;;2.53;2.40;;;23.30;45.30;;;;;;4955911;28;20505;-50
2021/04/18 09:36:54;;;;;;;2.30;2.00;;;23.50;45.10;;;;;;4956064;28;20466;-51
2021/04/18 09:39:24;;;;;;;3.47;2.60;;;23.60;45.10;;;;;;4955812;28;20449;-50
2021/04/18 09:41:51;;;;;;;2.80;2.60;;;23.60;45.10;;;;;;4956033;28;20496;-53
2021/04/18 09:44:30;;;;;;;3.23;2.77;;;23.60;45.30;;;;;;4955881;28;20443;-54
2021/04/18 09:47:00;;;;;;;2.83;2.63;;;23.80;45.40;;;;;;4955530;28;20467;-53
2021/04/18 09:49:28;;;;;;;4.33;2.30;;;24.00;45.20;;;;;;4955910;28;20426;-50
2021/04/18 09:52:01;;;;;;;3.40;2.80;;;24.20;45.10;;;;;;4956060;28;20443;-51
2021/04/18 09:54:29;;;;;;;5.20;2.73;;;24.40;44.90;;;;;;4956060;28;20531;-55
2021/04/18 09:57:19;;;;;;;3.50;2.60;;;24.60;44.90;;;;;;4955827;28;20518;-50
2021/04/18 10:00:01;;;;;;;3.30;2.60;;;24.80;44.80;;;;;;4956024;28;20472;-52
2021/04/18 10:02:27;;;;;;;4.40;2.40;;;25.10;44.60;;;;;;4955775;28;20413;-51
2021/04/18 10:05:16;;;;;;;3.00;1.97;;;25.20;44.40;;;;;;4955438;28;20422;-53
2021/04/18 10:07:43;;;;;;;13.27;2.50;;;25.50;44.70;;;;;;4955724;28;20414;-52
2021/04/18 10:10:12;;;;;;;3.00;2.20;;;25.70;44.10;;;;;;4955564;28;20424;-51
2021/04/18 10:12:52;;;;;;;2.70;2.43;;;25.60;44.20;;;;;;4955475;28;20505;-53
2021/04/18 10:15:19;;;;;;;2.60;2.10;;;25.70;44.20;;;;;;4955357;28;20423;-52
2021/04/18 10:17:46;;;;;;;2.70;2.50;;;25.80;44.10;;;;;;4955396;28;20465;-54
2021/04/18 10:20:24;;;;;;;2.37;2.27;;;25.70;44.10;;;;;;4955311;28;20463;-53
2021/04/18 10:23:06;;;;;;;2.20;2.10;;;25.70;44.20;;;;;;4955037;28;20475;-55
2021/04/18 10:25:33;;;;;;;2.60;2.40;;;26.00;44.00;;;;;;4954834;28;20420;-53
2021/04/18 10:28:00;;;;;;;2.40;2.20;;;26.30;43.40;;;;;;4954994;28;20477;-55
2021/04/18 10:30:27;;;;;;;3.10;2.60;;;26.50;43.10;;;;;;4954796;28;20422;-53
2021/04/18 10:32:54;;;;;;;7.83;2.67;;;26.70;42.70;;;;;;4955011;28;20431;-54
2021/04/18 10:35:21;;;;;;;2.27;2.17;;;26.90;42.40;;;;;;4954676;28;20489;-53
2021/04/18 10:37:49;;;;;;;2.33;2.13;;;27.10;42.00;;;;;;4954666;28;20422;-50
2021/04/18 10:40:18;;;;;;;7.80;2.10;;;27.20;41.80;;;;;;4954521;28;20446;-51
2021/04/18 10:42:45;;;;;;;2.30;2.00;;;27.50;41.50;;;;;;4954752;28;20466;-54
2021/04/18 10:45:12;;;;;;;2.20;2.00;;;27.70;41.10;;;;;;4954816;28;20471;-54
2021/04/18 10:47:39;;;;;;;2.00;1.90;;;27.70;41.10;;;;;;4954696;28;20550;-48
2021/04/18 10:50:08;;;;;;;3.33;2.20;;;27.80;41.00;;;;;;4954787;28;20450;-53
2021/04/18 10:52:35;;;;;;;2.47;2.37;;;27.80;41.10;;;;;;4954867;28;20443;-52
2021/04/18 10:55:03;;;;;;;6.53;2.60;;;28.00;41.00;;;;;;4954609;28;20506;-53
2021/04/18 10:57:30;;;;;;;2.53;2.17;;;28.20;41.40;;;;;;4953846;28;20491;-51
2021/04/18 10:59:57;;;;;;;2.40;2.20;;;28.40;40.60;;;;;;4954667;28;20537;-53
2021/04/18 11:02:24;;;;;;;5.40;2.50;;;28.50;40.60;;;;;;4959909;28;20486;-51
2021/04/18 11:04:51;;;;;;;5.97;2.17;;;28.30;40.70;;;;;;4963052;28;20423;-50
2021/04/18 11:07:18;;;;;;;2.23;2.10;;;28.20;40.90;;;;;;4966892;28;20537;-53
2021/04/18 11:09:45;;;;;;;2.50;2.30;;;28.40;40.90;;;;;;4973072;28;20477;-52
2021/04/18 11:12:17;;;;;;;2.80;2.37;;;28.80;40.20;;;;;;4973659;28;20446;-53
2021/04/18 11:14:44;;;;;;;2.83;2.13;;;29.10;40.00;;;;;;4973076;28;20529;-52
2021/04/18 11:17:12;;;;;;;2.87;1.90;;;29.30;39.50;;;;;;4972832;28;20503;-52
2021/04/18 11:19:39;;;;;;;1.60;1.50;;;29.80;39.10;;;;;;4973351;28;20466;-54
2021/04/18 11:22:07;;;;;;;1.50;1.47;;;30.30;38.40;;;;;;4963738;28;20549;-53
2021/04/18 11:24:34;;;;;;;1.13;1.13;;;30.90;37.80;;;;;;4969311;28;20508;-56
2021/04/18 11:27:01;;;;;;;9.35;3.00;;;32.90;36.30;;;;;;4955676;28;20647;-60
2021/04/18 11:29:29;;;;;;;4.10;2.70;;;33.40;24.60;;;;;;4973055;28;20199;-56
2021/04/18 11:31:56;;;;;;;2.87;2.77;;;30.60;25.90;;;;;;4973081;28;20480;-57
2021/04/18 11:34:23;;;;;;;4.70;3.53;;;30.70;26.70;;;;;;4972842;28;20511;-59
2021/04/18 11:36:50;;;;;;;3.63;3.40;;;30.40;25.40;;;;;;4972994;28;20443;-59
2021/04/18 11:39:17;;;;;;;6.23;4.10;;;31.70;24.70;;;;;;4953705;28;20475;-58
2021/04/18 11:41:44;;;;;;;9.23;4.50;;;30.40;25.00;;;;;;4953709;28;20447;-49
2021/04/18 11:44:14;;;;;;;3.83;3.00;;;30.30;26.00;;;;;;4963818;28;20465;-57
2021/04/18 11:46:42;;;;;;;2.70;2.50;;;32.30;24.90;;;;;;4965561;28;20470;-56
2021/04/18 11:49:15;;;;;;;2.20;2.08;;;33.80;24.20;;;;;;4965285;28;20463;-58
2021/04/18 11:51:43;;;;;;;1.92;1.80;;;33.80;24.10;;;;;;4973060;28;20463;-59
2021/04/18 11:54:10;;;;;;;1.85;1.70;;;32.70;24.70;;;;;;4972569;28;20235;-54
2021/04/18 11:56:37;;;;;;;1.85;1.50;;;32.20;24.80;;;;;;4972869;28;20203;-58
2021/04/18 11:59:05;;;;;;;4.13;1.90;;;32.90;25.20;;;;;;4972418;28;20228;-58
2021/04/18 12:01:32;;;;;;;4.72;1.80;;;32.30;25.60;;;;;;4972710;28;20280;-58
2021/04/18 12:04:00;;;;;;;2.88;1.40;;;34.10;25.60;;;;;;4972493;28;20257;-58
2021/04/18 12:06:27;;;;;;;4.78;1.70;;;35.10;25.30;;;;;;4972756;28;20207;-59
2021/04/18 12:08:54;;;;;;;1.10;1.10;;;37.00;22.20;;;;;;4973159;28;20243;-58
2021/04/18 12:11:21;;;;;;;1.15;1.15;;;36.90;22.80;;;;;;4976166;28;20200;-55
2021/04/18 12:13:48;;;;;;;2.03;1.80;;;38.00;23.10;;;;;;4976025;28;20228;-55
2021/04/18 12:16:15;;;;;;;1.30;1.25;;;39.40;21.30;;;;;;4975577;28;20299;-54
2021/04/18 12:18:42;;;;;;;1.27;1.27;;;39.60;20.10;;;;;;4976111;28;20223;-54
2021/04/18 12:21:10;;;;;;;1.20;1.20;;;40.20;19.80;;;;;;4975680;28;20239;-57
2021/04/18 12:23:37;;;;;;;0.90;0.90;;;40.70;20.60;;;;;;4976289;28;20234;-56
2021/04/18 12:26:05;;;;;;;1.05;1.02;;;40.10;21.20;;;;;;4975853;28;20236;-56
2021/04/18 12:28:32;;;;;;;1.50;1.40;;;40.50;20.10;;;;;;4975733;28;20215;-53
2021/04/18 12:30:59;;;;;;;2.13;1.23;;;40.50;20.00;;;;;;4975625;28;20273;-56
2021/04/18 12:33:27;;;;;;;0.85;0.80;;;41.00;20.30;;;;;;4975645;28;20203;-48
2021/04/18 12:35:54;;;;;;;2.95;0.85;;;41.10;20.60;;;;;;4975709;28;20207;-56
2021/04/18 12:38:22;;;;;;;1.00;1.00;;;41.30;20.50;;;;;;4975411;28;20219;-57
2021/04/18 12:40:48;;;;;;;1.10;1.00;;;41.20;20.30;;;;;;4975492;28;20203;-57
2021/04/18 12:43:15;;;;;;;1.20;1.20;;;41.00;19.50;;;;;;4975732;28;20231;-55
2021/04/18 12:45:43;;;;;;;2.17;1.48;;;40.60;19.40;;;;;;4975508;28;20277;-56
2021/04/18 12:48:11;;;;;;;1.67;1.30;;;40.90;19.40;;;;;;4975786;28;20211;-56
2021/04/18 12:50:38;;;;;;;1.92;1.48;;;41.30;20.00;;;;;;4975481;28;20199;-55